createdAt,value
2022-08-19T00:01:57.454Z,20.50
2022-08-19T00:04:31.323Z,20.40
2022-08-19T00:07:00.935Z,20.40
2022-08-19T00:09:30.051Z,20.30
2022-08-19T00:11:59.862Z,20.20
2022-08-19T00:14:31.223Z,20.20
2022-08-19T00:16:59.614Z,20.20
2022-08-19T00:19:29.932Z,20.20
2022-08-19T00:21:58.054Z,20.20
2022-08-19T00:24:27.013Z,20.10
2022-08-19T00:26:56.057Z,20.10
2022-08-19T00:29:26.570Z,20.10
2022-08-19T00:31:55.767Z,20.10
2022-08-19T00:34:24.779Z,20.10
2022-08-19T00:36:54.333Z,20.00
2022-08-19T00:39:22.512Z,20.00
2022-08-19T00:41:52.457Z,20.00
2022-08-19T00:44:26.800Z,20.00
2022-08-19T00:46:58.483Z,20.00
2022-08-19T00:49:31.719Z,20.00
2022-08-19T00:52:05.377Z,20.00
2022-08-19T00:54:34.124Z,20.00
2022-08-19T00:57:06.455Z,20.00
2022-08-19T01:00:00.723Z,20.00
2022-08-19T01:02:26.197Z,20.00
2022-08-19T01:04:54.669Z,20.10
2022-08-19T01:07:24.495Z,20.10
2022-08-19T01:09:53.649Z,20.10
2022-08-19T01:12:22.619Z,20.00
2022-08-19T01:14:52.199Z,20.10
2022-08-19T01:17:22.191Z,20.20
2022-08-19T01:19:50.922Z,20.10
2022-08-19T01:22:33.432Z,20.00
2022-08-19T01:25:03.465Z,20.00
2022-08-19T01:27:43.075Z,19.90
2022-08-19T01:30:13.594Z,19.80
2022-08-19T01:32:42.081Z,19.80
2022-08-19T01:35:11.485Z,19.70
2022-08-19T01:37:53.086Z,19.60
2022-08-19T01:40:22.813Z,19.70
2022-08-19T01:42:52.056Z,19.60
2022-08-19T01:45:21.329Z,19.60
2022-08-19T01:47:51.717Z,19.70
2022-08-19T01:50:30.015Z,19.60
2022-08-19T01:53:06.369Z,19.60
2022-08-19T01:55:40.541Z,19.60
2022-08-19T01:58:12.988Z,19.50
2022-08-19T02:00:41.767Z,19.50
2022-08-19T02:03:10.253Z,19.50
2022-08-19T02:05:38.409Z,19.50
2022-08-19T02:08:08.512Z,19.50
2022-08-19T02:10:41.577Z,19.50
2022-08-19T02:13:10.014Z,19.50
2022-08-19T02:15:39.222Z,19.60
2022-08-19T02:18:08.366Z,19.50
2022-08-19T02:20:36.886Z,19.40
2022-08-19T02:23:05.535Z,19.20
2022-08-19T02:25:43.765Z,19.10
2022-08-19T02:28:16.633Z,19.20
2022-08-19T02:30:46.742Z,19.20
2022-08-19T02:33:15.181Z,19.20
2022-08-19T02:35:44.687Z,19.10
2022-08-19T02:38:28.217Z,19.10
2022-08-19T02:41:01.552Z,19.00
2022-08-19T02:43:34.395Z,19.00
2022-08-19T02:46:03.415Z,19.00
2022-08-19T02:48:34.012Z,19.00
2022-08-19T02:51:02.679Z,19.00
2022-08-19T02:53:31.041Z,19.00
2022-08-19T02:56:01.062Z,18.80
2022-08-19T02:58:29.214Z,18.90
2022-08-19T03:00:59.492Z,18.80
2022-08-19T03:03:28.375Z,18.80
2022-08-19T03:06:06.838Z,18.70
2022-08-19T03:08:35.370Z,18.70
2022-08-19T03:11:06.019Z,18.70
2022-08-19T03:13:34.729Z,18.60
2022-08-19T03:16:07.171Z,18.60
2022-08-19T03:18:35.431Z,18.60
2022-08-19T03:21:03.827Z,18.60
2022-08-19T03:23:32.268Z,18.60
2022-08-19T03:26:16.068Z,18.60
2022-08-19T03:28:58.358Z,18.60
2022-08-19T03:31:43.807Z,18.60
2022-08-19T03:34:15.751Z,18.60
2022-08-19T03:36:44.073Z,18.60
2022-08-19T03:39:13.550Z,18.50
2022-08-19T03:41:45.635Z,18.50
2022-08-19T03:44:18.557Z,18.50
2022-08-19T03:46:47.835Z,18.50
2022-08-19T03:49:18.447Z,18.50
2022-08-19T03:51:48.976Z,18.50
2022-08-19T03:54:19.834Z,18.40
2022-08-19T03:56:50.612Z,18.40
2022-08-19T03:59:26.919Z,18.40
2022-08-19T04:01:56.733Z,18.50
2022-08-19T04:04:28.939Z,18.50
2022-08-19T04:06:58.419Z,18.50
2022-08-19T04:09:27.217Z,18.50
2022-08-19T04:11:59.020Z,18.50
2022-08-19T04:14:31.615Z,18.40
2022-08-19T04:17:01.032Z,18.40
2022-08-19T04:19:31.720Z,18.40
2022-08-19T04:22:00.274Z,18.40
2022-08-19T04:24:28.504Z,18.40
2022-08-19T04:26:56.989Z,18.40
2022-08-19T04:29:28.399Z,18.30
2022-08-19T04:31:58.290Z,18.40
2022-08-19T04:34:30.814Z,18.30
2022-08-19T04:37:00.669Z,18.30
2022-08-19T04:39:45.732Z,18.30
2022-08-19T04:42:32.421Z,18.30
2022-08-19T04:45:05.297Z,18.20
2022-08-19T04:47:49.419Z,18.30
2022-08-19T04:50:23.831Z,18.30
2022-08-19T04:52:54.326Z,18.30
2022-08-19T04:55:22.733Z,18.30
2022-08-19T04:57:51.997Z,18.30
2022-08-19T05:00:21.857Z,18.40
2022-08-19T05:02:50.244Z,18.40
2022-08-19T05:05:19.223Z,18.40
2022-08-19T05:07:47.578Z,18.40
2022-08-19T05:10:15.779Z,18.40
2022-08-19T05:12:44.095Z,18.40
2022-08-19T05:15:12.945Z,18.40
2022-08-19T05:18:03.510Z,18.40
2022-08-19T05:20:48.946Z,18.40
2022-08-19T05:23:20.527Z,18.60
2022-08-19T05:25:52.689Z,18.50
2022-08-19T05:28:21.384Z,18.50
2022-08-19T05:30:51.966Z,18.60
2022-08-19T05:33:21.634Z,18.70
2022-08-19T05:35:50.924Z,18.70
2022-08-19T05:38:19.946Z,18.90
2022-08-19T05:40:49.150Z,19.10
2022-08-19T05:43:18.543Z,19.10
2022-08-19T05:45:46.680Z,19.30
2022-08-19T05:48:16.008Z,19.50
2022-08-19T05:50:46.438Z,19.50
2022-08-19T05:53:15.597Z,19.50
2022-08-19T05:55:43.869Z,19.60
2022-08-19T05:58:12.377Z,19.70
2022-08-19T06:00:41.175Z,19.70
2022-08-19T06:03:09.715Z,19.80
2022-08-19T06:05:49.793Z,19.80
2022-08-19T06:08:34.627Z,19.70
2022-08-19T06:11:16.408Z,19.80
2022-08-19T06:13:46.065Z,20.10
2022-08-19T06:16:23.442Z,20.50
2022-08-19T06:18:53.534Z,20.90
2022-08-19T06:21:22.252Z,21.10
2022-08-19T06:23:53.142Z,21.20
2022-08-19T06:26:22.708Z,21.20
2022-08-19T06:28:51.379Z,21.10
2022-08-19T06:31:22.486Z,21.10
2022-08-19T06:33:51.786Z,21.10
2022-08-19T06:36:25.227Z,21.10
2022-08-19T06:38:55.678Z,21.00
2022-08-19T06:41:24.075Z,21.00
2022-08-19T06:43:54.205Z,21.10
2022-08-19T06:46:25.455Z,21.10
2022-08-19T06:48:54.486Z,21.20
2022-08-19T06:51:24.862Z,21.20
2022-08-19T06:53:56.273Z,21.20
2022-08-19T06:56:31.980Z,21.20
2022-08-19T06:59:00.705Z,21.10
2022-08-19T07:01:29.557Z,21.10
2022-08-19T07:03:58.405Z,21.20
2022-08-19T07:06:44.103Z,21.00
2022-08-19T07:09:18.604Z,21.10
2022-08-19T07:11:48.366Z,21.10
2022-08-19T07:14:20.197Z,21.20
2022-08-19T07:16:50.259Z,21.20
2022-08-19T07:19:22.272Z,21.30
2022-08-19T07:21:51.963Z,21.20
2022-08-19T07:24:24.874Z,21.20
2022-08-19T07:26:55.127Z,21.30
2022-08-19T07:29:25.834Z,21.30
2022-08-19T07:31:57.510Z,21.30
2022-08-19T07:34:29.465Z,21.30
2022-08-19T07:36:58.777Z,21.30
2022-08-19T07:39:32.073Z,21.30
2022-08-19T07:42:03.274Z,21.40
2022-08-19T07:44:31.617Z,21.30
2022-08-19T07:47:01.128Z,21.40
2022-08-19T07:49:30.203Z,21.40
2022-08-19T07:52:03.982Z,21.40
2022-08-19T07:54:36.756Z,21.50
2022-08-19T07:57:05.942Z,21.80
2022-08-19T07:59:35.083Z,21.90
2022-08-19T08:02:03.973Z,22.00
2022-08-19T08:04:50.486Z,21.90
2022-08-19T08:07:38.889Z,22.00
2022-08-19T08:10:20.430Z,22.20
2022-08-19T08:13:08.547Z,22.20
2022-08-19T08:15:43.181Z,22.20
2022-08-19T08:18:12.676Z,22.10
2022-08-19T08:20:43.124Z,22.20
2022-08-19T08:23:27.371Z,22.30
2022-08-19T08:26:00.060Z,22.20
2022-08-19T08:28:30.781Z,22.40
2022-08-19T08:31:00.247Z,22.30
2022-08-19T08:33:34.390Z,22.30
2022-08-19T08:36:04.307Z,22.30
2022-08-19T08:38:38.963Z,22.50
2022-08-19T08:41:20.832Z,22.60
2022-08-19T08:43:52.873Z,22.60
2022-08-19T08:46:31.599Z,22.60
2022-08-19T08:49:09.923Z,22.60
2022-08-19T08:51:44.258Z,22.60
2022-08-19T08:54:20.103Z,22.70
2022-08-19T08:56:51.959Z,22.80
2022-08-19T08:59:26.509Z,22.80
2022-08-19T09:01:55.328Z,22.80
2022-08-19T09:04:24.099Z,22.80
2022-08-19T09:06:58.280Z,22.90
2022-08-19T09:09:33.515Z,22.80
2022-08-19T09:12:11.784Z,22.70
2022-08-19T09:14:50.608Z,22.70
2022-08-19T09:17:20.263Z,22.70
2022-08-19T09:19:54.953Z,22.70
2022-08-19T09:22:25.976Z,22.60
2022-08-19T09:24:56.322Z,22.50
2022-08-19T09:27:42.524Z,22.60
2022-08-19T09:30:15.753Z,22.60
2022-08-19T09:32:52.841Z,22.70
2022-08-19T09:35:23.199Z,22.80
2022-08-19T09:37:57.542Z,22.70
2022-08-19T09:40:30.218Z,22.70
2022-08-19T09:43:09.990Z,22.70
2022-08-19T09:45:38.627Z,22.80
2022-08-19T09:48:09.409Z,22.90
2022-08-19T09:50:51.577Z,23.00
2022-08-19T09:53:20.713Z,23.20
2022-08-19T09:55:49.054Z,23.20
2022-08-19T09:58:19.843Z,23.20
2022-08-19T10:00:53.569Z,23.10
2022-08-19T10:03:25.517Z,23.10
2022-08-19T10:06:00.084Z,23.10
2022-08-19T10:08:30.412Z,23.20
2022-08-19T10:10:59.675Z,23.30
2022-08-19T10:13:49.886Z,23.30
2022-08-19T10:16:30.103Z,23.50
2022-08-19T10:18:59.446Z,23.70
2022-08-19T10:21:32.293Z,23.90
2022-08-19T10:24:05.078Z,24.00
2022-08-19T10:26:35.559Z,23.90
2022-08-19T10:29:09.212Z,23.90
2022-08-19T10:32:01.296Z,24.00
2022-08-19T10:34:28.435Z,24.10
2022-08-19T10:37:00.910Z,24.10
2022-08-19T10:39:32.810Z,24.10
2022-08-19T10:42:11.670Z,24.10
2022-08-19T10:44:41.928Z,24.10
2022-08-19T10:47:17.404Z,24.10
2022-08-19T10:50:11.800Z,24.20
2022-08-19T10:52:49.320Z,24.10
2022-08-19T10:55:37.447Z,23.90
2022-08-19T10:58:06.516Z,24.00
2022-08-19T11:00:38.306Z,24.00
2022-08-19T11:03:06.683Z,24.00
2022-08-19T11:05:39.925Z,24.10
2022-08-19T11:08:22.095Z,24.10
2022-08-19T11:10:55.042Z,24.10
2022-08-19T11:13:24.444Z,24.10
2022-08-19T11:16:06.526Z,24.20
2022-08-19T11:18:37.156Z,24.20
2022-08-19T11:21:10.414Z,24.30
2022-08-19T11:23:38.960Z,24.20
2022-08-19T11:26:07.401Z,24.30
2022-08-19T11:28:35.772Z,24.30
2022-08-19T11:31:05.961Z,24.30
2022-08-19T11:33:34.810Z,24.40
2022-08-19T11:36:03.557Z,24.60
2022-08-19T11:38:32.239Z,24.70
2022-08-19T11:41:02.312Z,24.80
2022-08-19T11:43:36.759Z,24.90
2022-08-19T11:46:09.020Z,25.00
2022-08-19T11:48:37.813Z,24.90
2022-08-19T11:51:08.235Z,24.90
2022-08-19T11:53:36.742Z,24.80
2022-08-19T11:56:06.048Z,24.80
2022-08-19T11:58:35.125Z,24.90
2022-08-19T12:01:03.633Z,25.00
2022-08-19T12:03:33.223Z,25.20
2022-08-19T12:06:05.208Z,25.50
2022-08-19T12:08:33.434Z,25.60
2022-08-19T12:11:02.866Z,25.60
2022-08-19T12:13:32.118Z,25.50
2022-08-19T12:16:00.477Z,25.60
2022-08-19T12:18:28.805Z,25.50
2022-08-19T12:20:58.772Z,25.40
2022-08-19T12:23:26.993Z,25.10
2022-08-19T12:25:55.663Z,25.10
2022-08-19T12:28:26.229Z,25.10
2022-08-19T12:30:54.664Z,24.90
2022-08-19T12:33:25.771Z,24.80
2022-08-19T12:35:54.737Z,24.70
2022-08-19T12:38:25.222Z,24.70
2022-08-19T12:40:57.105Z,24.70
2022-08-19T12:43:28.184Z,24.70
2022-08-19T12:45:56.784Z,24.80
2022-08-19T12:48:33.843Z,24.80
2022-08-19T12:51:08.289Z,25.00
2022-08-19T12:53:39.239Z,25.10
2022-08-19T12:56:12.371Z,25.00
2022-08-19T12:58:48.934Z,25.10
2022-08-19T13:01:23.176Z,25.10
2022-08-19T13:03:53.251Z,25.00
2022-08-19T13:06:21.535Z,25.10
2022-08-19T13:08:51.331Z,25.10
2022-08-19T13:11:25.413Z,25.00
2022-08-19T13:13:56.322Z,24.70
2022-08-19T13:16:24.714Z,24.60
2022-08-19T13:18:53.643Z,24.70
2022-08-19T13:21:23.843Z,24.70
2022-08-19T13:23:54.338Z,24.60
2022-08-19T13:26:25.783Z,24.50
2022-08-19T13:29:11.837Z,24.50
2022-08-19T13:32:00.645Z,24.40
2022-08-19T13:34:33.123Z,24.40
2022-08-19T13:37:03.949Z,24.30
2022-08-19T13:39:34.889Z,24.30
2022-08-19T13:42:05.297Z,24.50
2022-08-19T13:44:33.773Z,24.60
2022-08-19T13:47:08.226Z,24.70
2022-08-19T13:49:37.772Z,24.80
2022-08-19T13:52:06.761Z,24.80
2022-08-19T13:54:36.811Z,24.90
2022-08-19T13:57:05.206Z,24.90
2022-08-19T13:59:33.866Z,25.30
2022-08-19T14:02:03.162Z,25.60
2022-08-19T14:04:31.366Z,26.00
2022-08-19T14:07:02.598Z,26.40
2022-08-19T14:09:31.019Z,26.80
2022-08-19T14:12:00.856Z,27.10
2022-08-19T14:14:30.109Z,27.30
2022-08-19T14:16:58.442Z,27.30
2022-08-19T14:19:27.284Z,27.10
2022-08-19T14:21:59.422Z,26.90
2022-08-19T14:24:27.781Z,26.70
2022-08-19T14:26:55.983Z,26.50
2022-08-19T14:29:26.061Z,26.40
2022-08-19T14:31:54.255Z,26.10
2022-08-19T14:34:23.208Z,25.80
2022-08-19T14:36:51.663Z,25.40
2022-08-19T14:39:19.880Z,25.20
2022-08-19T14:41:48.045Z,25.10
2022-08-19T14:44:16.782Z,25.10
2022-08-19T14:46:48.561Z,25.00
2022-08-19T14:49:19.069Z,24.80
2022-08-19T14:51:47.892Z,24.80
2022-08-19T14:54:16.064Z,25.00
2022-08-19T14:56:44.616Z,25.40
2022-08-19T14:59:13.072Z,25.60
2022-08-19T15:01:41.356Z,25.70
2022-08-19T15:04:11.646Z,25.80
2022-08-19T15:06:39.878Z,25.80
2022-08-19T15:09:08.283Z,25.90
2022-08-19T15:11:37.139Z,26.00
2022-08-19T15:14:06.312Z,26.00
2022-08-19T15:16:35.196Z,26.10
2022-08-19T15:19:04.217Z,26.20
2022-08-19T15:21:33.961Z,26.10
2022-08-19T15:24:03.138Z,26.00
2022-08-19T15:26:33.591Z,25.90
2022-08-19T15:29:02.573Z,25.70
2022-08-19T15:31:38.761Z,25.60
2022-08-19T15:34:07.762Z,25.50
2022-08-19T15:36:37.892Z,25.30
2022-08-19T15:39:07.498Z,25.30
2022-08-19T15:41:37.098Z,25.20
2022-08-19T15:44:10.826Z,25.20
2022-08-19T15:46:40.718Z,25.30
2022-08-19T15:49:10.743Z,25.30
2022-08-19T15:51:43.258Z,25.10
2022-08-19T15:54:14.290Z,25.00
2022-08-19T15:57:00.281Z,25.00
2022-08-19T15:59:47.613Z,25.10
2022-08-19T16:02:34.447Z,25.10
2022-08-19T16:05:20.730Z,25.20
2022-08-19T16:07:51.049Z,25.30
2022-08-19T16:10:27.543Z,25.30
2022-08-19T16:12:56.967Z,25.40
2022-08-19T16:15:27.407Z,25.50
2022-08-19T16:17:57.042Z,25.60
2022-08-19T16:20:27.616Z,25.70
2022-08-19T16:22:58.752Z,25.80
2022-08-19T16:25:29.410Z,25.80
2022-08-19T16:28:07.094Z,25.80
2022-08-19T16:30:38.166Z,25.80
2022-08-19T16:33:07.165Z,25.80
2022-08-19T16:35:35.388Z,25.80
2022-08-19T16:38:07.167Z,25.80
2022-08-19T16:40:35.510Z,25.80
2022-08-19T16:43:04.318Z,25.80
2022-08-19T16:45:32.815Z,25.60
2022-08-19T16:48:01.008Z,25.60
2022-08-19T16:50:48.296Z,25.60
2022-08-19T16:53:21.777Z,25.60
2022-08-19T16:55:53.299Z,25.60
2022-08-19T16:58:28.548Z,25.50
2022-08-19T17:01:02.040Z,25.40
2022-08-19T17:03:36.601Z,25.30
2022-08-19T17:06:16.027Z,25.50
2022-08-19T17:08:51.638Z,25.40
2022-08-19T17:11:21.078Z,25.40
2022-08-19T17:13:50.334Z,25.30
2022-08-19T17:16:19.568Z,25.00
2022-08-19T17:18:52.334Z,25.00
2022-08-19T17:21:21.224Z,24.90
2022-08-19T17:23:51.074Z,25.00
2022-08-19T17:26:20.256Z,25.00
2022-08-19T17:28:51.322Z,24.70
2022-08-19T17:31:23.151Z,24.60
2022-08-19T17:33:52.343Z,24.60
2022-08-19T17:36:24.208Z,24.50
2022-08-19T17:38:55.886Z,24.50
2022-08-19T17:41:24.464Z,24.40
2022-08-19T17:43:52.941Z,24.40
2022-08-19T17:46:21.562Z,24.30
2022-08-19T17:48:52.890Z,24.30
2022-08-19T17:51:23.797Z,24.10
2022-08-19T17:53:55.746Z,24.00
2022-08-19T17:56:25.080Z,23.90
2022-08-19T17:59:00.056Z,23.90
2022-08-19T18:01:48.390Z,23.80
2022-08-19T18:04:19.845Z,23.70
2022-08-19T18:06:52.766Z,23.60
2022-08-19T18:09:25.001Z,23.70
2022-08-19T18:11:55.695Z,23.80
2022-08-19T18:14:32.790Z,23.70
2022-08-19T18:17:05.614Z,23.60
2022-08-19T18:19:41.627Z,23.50
2022-08-19T18:22:12.241Z,23.30
2022-08-19T18:24:42.920Z,23.20
2022-08-19T18:27:14.523Z,23.20
2022-08-19T18:29:43.557Z,23.30
2022-08-19T18:32:15.215Z,23.30
2022-08-19T18:34:46.023Z,23.20
2022-08-19T18:37:14.760Z,23.00
2022-08-19T18:40:02.053Z,23.00
2022-08-19T18:42:47.677Z,22.90
2022-08-19T18:45:33.628Z,23.00
2022-08-19T18:48:26.558Z,22.80
2022-08-19T18:50:57.562Z,22.80
2022-08-19T18:53:26.235Z,22.70
2022-08-19T18:55:56.062Z,22.70
2022-08-19T18:58:26.644Z,22.70
2022-08-19T19:00:57.336Z,22.60
2022-08-19T19:03:26.348Z,22.50
2022-08-19T19:05:55.195Z,22.70
2022-08-19T19:08:27.464Z,22.80
2022-08-19T19:11:01.067Z,22.90
2022-08-19T19:13:29.910Z,22.60
2022-08-19T19:15:58.362Z,22.40
2022-08-19T19:18:26.585Z,22.40
2022-08-19T19:20:55.251Z,22.40
2022-08-19T19:23:23.717Z,22.40
2022-08-19T19:25:53.688Z,22.30
2022-08-19T19:28:25.441Z,22.20
2022-08-19T19:30:54.584Z,22.20
2022-08-19T19:33:22.793Z,22.20
2022-08-19T19:35:50.972Z,22.20
2022-08-19T19:38:19.510Z,22.30
2022-08-19T19:40:47.726Z,22.40
2022-08-19T19:43:18.289Z,22.30
2022-08-19T19:45:49.974Z,22.20
2022-08-19T19:48:18.591Z,22.20
2022-08-19T19:50:53.284Z,22.10
2022-08-19T19:53:23.132Z,22.10
2022-08-19T19:55:54.838Z,22.20
2022-08-19T19:58:28.479Z,22.10
2022-08-19T20:00:59.717Z,22.00
2022-08-19T20:03:29.885Z,22.10
2022-08-19T20:05:59.564Z,21.90
2022-08-19T20:08:46.181Z,21.80
2022-08-19T20:11:17.835Z,21.80
2022-08-19T20:13:46.225Z,21.80
2022-08-19T20:16:15.948Z,21.80
2022-08-19T20:18:44.369Z,21.70
2022-08-19T20:21:13.658Z,21.70
2022-08-19T20:23:41.976Z,21.60
2022-08-19T20:26:21.399Z,21.60
2022-08-19T20:29:13.747Z,21.60
2022-08-19T20:31:59.318Z,21.50
2022-08-19T20:34:29.055Z,21.50
2022-08-19T20:36:57.379Z,21.60
2022-08-19T20:39:25.530Z,21.60
2022-08-19T20:41:56.610Z,21.50
2022-08-19T20:44:25.909Z,21.50
2022-08-19T20:46:58.400Z,21.50
2022-08-19T20:49:29.591Z,21.30
2022-08-19T20:51:58.525Z,21.30
2022-08-19T20:54:27.486Z,21.30
2022-08-19T20:56:56.285Z,21.40
2022-08-19T20:59:25.926Z,21.30
2022-08-19T21:01:55.792Z,21.20
2022-08-19T21:04:24.579Z,21.20
2022-08-19T21:06:53.079Z,21.10
2022-08-19T21:09:21.257Z,21.10
2022-08-19T21:11:49.666Z,20.80
2022-08-19T21:14:17.911Z,20.80
2022-08-19T21:16:50.594Z,20.70
2022-08-19T21:19:24.094Z,20.70
2022-08-19T21:21:52.925Z,20.70
2022-08-19T21:24:21.593Z,20.70
2022-08-19T21:26:54.882Z,20.70
2022-08-19T21:29:23.355Z,20.60
2022-08-19T21:31:51.547Z,20.50
2022-08-19T21:34:21.521Z,20.60
2022-08-19T21:36:50.058Z,20.50
2022-08-19T21:39:18.372Z,20.40
2022-08-19T21:41:46.744Z,20.40
2022-08-19T21:44:15.148Z,20.40
2022-08-19T21:46:43.443Z,20.40
2022-08-19T21:49:11.670Z,20.20
2022-08-19T21:51:41.610Z,20.30
2022-08-19T21:54:14.075Z,20.10
2022-08-19T21:56:43.183Z,19.90
2022-08-19T21:59:11.443Z,19.90
2022-08-19T22:01:39.738Z,19.90
2022-08-19T22:04:08.371Z,19.90
2022-08-19T22:06:36.523Z,19.90
2022-08-19T22:09:06.195Z,20.00
2022-08-19T22:11:34.857Z,19.90
2022-08-19T22:14:03.918Z,19.80
2022-08-19T22:16:33.749Z,19.80
2022-08-19T22:19:02.168Z,19.80
2022-08-19T22:21:40.300Z,19.90
2022-08-19T22:24:11.144Z,19.90
2022-08-19T22:26:39.347Z,19.70
2022-08-19T22:29:07.582Z,19.60
2022-08-19T22:31:37.787Z,19.60
2022-08-19T22:34:07.361Z,19.40
2022-08-19T22:36:35.867Z,19.40
2022-08-19T22:39:05.008Z,19.40
2022-08-19T22:41:35.114Z,19.40
2022-08-19T22:44:03.927Z,19.30
2022-08-19T22:46:33.755Z,19.30
2022-08-19T22:49:01.937Z,19.30
2022-08-19T22:51:47.745Z,19.30
2022-08-19T22:54:16.028Z,19.20
2022-08-19T22:56:45.666Z,19.10
2022-08-19T22:59:13.959Z,19.10
2022-08-19T23:01:42.844Z,19.10
2022-08-19T23:04:11.351Z,19.10
2022-08-19T23:06:42.040Z,19.10
2022-08-19T23:09:11.308Z,19.00
2022-08-19T23:11:47.159Z,19.00
2022-08-19T23:14:16.886Z,19.00
2022-08-19T23:16:50.704Z,19.00
2022-08-19T23:19:20.555Z,18.80
2022-08-19T23:21:48.947Z,18.70
2022-08-19T23:24:17.236Z,18.70
2022-08-19T23:27:01.013Z,18.60
2022-08-19T23:29:46.309Z,18.70
2022-08-19T23:32:17.116Z,18.90
2022-08-19T23:34:45.500Z,18.90
2022-08-19T23:37:13.839Z,18.90
2022-08-19T23:39:43.696Z,18.90
2022-08-19T23:42:15.191Z,18.80
2022-08-19T23:44:51.677Z,18.80
2022-08-19T23:47:21.366Z,18.90
2022-08-19T23:49:49.789Z,18.80
2022-08-19T23:52:17.984Z,18.80
2022-08-19T23:54:46.254Z,18.70
2022-08-19T23:57:15.993Z,18.60
2022-08-19T23:59:45.901Z,18.50
